Time;durP1;ratioP1;P1;durP2;ratioP2;P2;SDS_P1;SDS_P2;PMS_P1;PMS_P2;Temp;Humidity;BMP_temperature;BMP_pressure;BME280_temperature;BME280_humidity;BME280_pressure;Samples;Min_cycle;Max_cycle;Signal;HPM_P1;HPM_P2
2023/04/02 00:00:17;;;;;;;4.83;2.83;;;;;;;6.09;100.00;95681.69;10434589;28;20203;-79
2023/04/02 00:05:24;;;;;;;4.40;3.20;;;;;;;5.99;100.00;95690.41;10452393;28;20261;-79
2023/04/02 00:10:37;;;;;;;7.37;4.53;;;;;;;5.86;100.00;95708.16;10452134;28;20228;-79
2023/04/02 00:15:39;;;;;;;9.63;5.97;;;;;;;5.84;100.00;95715.28;10450291;28;20219;-77
2023/04/02 00:20:41;;;;;;;11.23;7.53;;;;;;;5.71;100.00;95726.06;10434320;28;20192;-80
2023/04/02 00:25:44;;;;;;;16.77;8.23;;;;;;;5.68;100.00;95742.78;10446711;28;20191;-79
2023/04/02 00:30:50;;;;;;;14.90;9.50;;;;;;;5.50;100.00;95744.59;10433851;28;20275;-77
2023/04/02 00:35:52;;;;;;;17.43;10.20;;;;;;;5.36;100.00;95767.50;10433608;28;20301;-78
2023/04/02 00:40:55;;;;;;;13.37;8.43;;;;;;;5.24;100.00;95773.88;10432651;28;20235;-78
2023/04/02 00:45:57;;;;;;;12.47;8.90;;;;;;;5.13;100.00;95782.69;10450162;28;20195;-77
2023/04/02 00:51:20;;;;;;;13.70;8.80;;;;;;;5.14;100.00;95799.06;10416419;28;20312;-77
2023/04/02 00:56:29;;;;;;;15.83;9.87;;;;;;;5.05;100.00;95800.75;10432921;28;20216;-78
2023/04/02 01:01:35;;;;;;;13.57;8.00;;;;;;;4.97;100.00;95808.44;10448587;28;20196;-78
2023/04/02 01:06:37;;;;;;;13.33;7.77;;;;;;;4.89;100.00;95816.97;10451053;28;20543;-77
2023/04/02 01:11:40;;;;;;;12.13;7.53;;;;;;;4.87;100.00;95824.06;10432153;28;20595;-78
2023/04/02 01:17:01;;;;;;;10.13;6.40;;;;;;;4.79;100.00;95831.75;10432917;28;20220;-77
2023/04/02 01:22:22;;;;;;;10.50;6.40;;;;;;;4.66;100.00;95839.03;10450122;28;20230;-79
2023/04/02 01:27:31;;;;;;;8.87;6.03;;;;;;;4.47;100.00;95835.53;10415948;28;20187;-77
2023/04/02 01:32:32;;;;;;;8.80;5.10;;;;;;;4.47;100.00;95840.69;10416006;28;20192;-78
2023/04/02 01:37:48;;;;;;;5.87;4.50;;;;;;;4.47;100.00;95851.06;10448997;28;20301;-78
2023/04/02 01:43:13;;;;;;;5.30;4.20;;;;;;;4.49;100.00;95851.78;10415709;28;20215;-78
2023/04/02 01:48:16;;;;;;;4.87;4.23;;;;;;;4.49;100.00;95856.13;10450158;28;20267;-78
2023/04/02 01:53:18;;;;;;;7.87;5.90;;;;;;;4.27;100.00;95860.66;10448854;28;20187;-78
2023/04/02 01:58:24;;;;;;;7.83;5.47;;;;;;;4.21;100.00;95874.19;10449832;28;20212;-77
2023/04/02 02:03:25;;;;;;;7.13;5.53;;;;;;;3.98;100.00;95873.66;10432702;28;20246;-77
2023/04/02 02:08:37;;;;;;;9.47;6.47;;;;;;;3.86;100.00;95884.16;10438861;28;20184;-76
2023/04/02 02:13:38;;;;;;;9.80;6.47;;;;;;;3.77;100.00;95891.91;10438739;28;20188;-76
2023/04/02 02:18:39;;;;;;;9.03;6.10;;;;;;;3.76;100.00;95896.28;10439029;28;20600;-76
2023/04/02 02:23:39;;;;;;;7.53;5.23;;;;;;;3.82;100.00;95906.09;10454770;28;20188;-77
2023/04/02 02:28:41;;;;;;;7.77;5.40;;;;;;;3.84;100.00;95913.72;10455828;28;20652;-77
2023/04/02 02:33:47;;;;;;;6.43;5.20;;;;;;;3.78;100.00;95902.13;10438391;28;20220;-77
2023/04/02 02:38:55;;;;;;;7.87;6.57;;;;;;;3.74;100.00;95924.91;10437079;28;20707;-78
2023/04/02 02:44:27;;;;;;;9.30;6.50;;;;;;;3.66;100.00;95924.75;10454863;28;20196;-78
2023/04/02 02:49:35;;;;;;;7.27;5.80;;;;;;;3.53;100.00;95940.53;10415960;28;20203;-77
2023/04/02 02:54:41;;;;;;;6.40;5.50;;;;;;;3.52;100.00;95951.84;10436354;28;20251;-77
2023/04/02 02:59:42;;;;;;;6.53;5.27;;;;;;;3.40;100.00;95963.25;10436889;28;20198;-77
2023/04/02 03:04:46;;;;;;;7.13;5.93;;;;;;;3.19;100.00;95966.69;10434899;28;20202;-76
2023/04/02 03:10:26;;;;;;;8.63;6.50;;;;;;;3.19;100.00;95979.63;10416255;28;20667;-77
2023/04/02 03:16:08;;;;;;;10.13;7.87;;;;;;;3.01;100.00;95989.75;10433120;28;20620;-77
2023/04/02 03:21:26;;;;;;;13.10;8.30;;;;;;;2.95;100.00;96004.97;10391254;28;20196;-78
2023/04/02 03:26:56;;;;;;;11.20;8.80;;;;;;;2.98;100.00;96012.47;10416057;28;20184;-77
2023/04/02 03:32:04;;;;;;;14.50;9.33;;;;;;;2.97;100.00;96016.84;10449956;28;20686;-77
2023/04/02 03:37:11;;;;;;;17.00;11.80;;;;;;;2.73;100.00;96030.00;10415348;28;20589;-77
2023/04/02 03:42:18;;;;;;;16.07;11.20;;;;;;;2.75;100.00;96035.06;10415208;28;20448;-76
2023/04/02 03:47:30;;;;;;;9.27;7.67;;;;;;;2.67;100.00;96051.19;10415449;28;20266;-76
2023/04/02 03:52:34;;;;;;;8.20;6.13;;;;;;;2.47;100.00;96068.31;10431088;28;20188;-76
2023/04/02 03:57:42;;;;;;;8.40;6.50;;;;;;;2.48;100.00;96077.69;10414930;28;20224;-77
2023/04/02 04:02:46;;;;;;;7.37;6.40;;;;;;;2.47;100.00;96092.38;10432655;28;20188;-77
2023/04/02 04:07:51;;;;;;;6.47;5.50;;;;;;;2.35;100.00;96098.53;10418028;28;20188;-77
2023/04/02 04:12:53;;;;;;;9.60;6.40;;;;;;;2.37;100.00;96106.97;10418132;28;20215;-77
2023/04/02 04:18:18;;;;;;;8.10;6.90;;;;;;;2.46;100.00;96120.94;10417820;28;20242;-76
2023/04/02 04:23:29;;;;;;;9.40;6.77;;;;;;;2.40;100.00;96117.06;10417967;28;20196;-76
2023/04/02 04:28:57;;;;;;;9.63;7.60;;;;;;;2.38;100.00;96129.31;10417822;28;20195;-75
2023/04/02 04:34:10;;;;;;;9.23;6.53;;;;;;;2.39;100.00;96145.63;10417658;28;20304;-76
2023/04/02 04:39:14;;;;;;;6.60;5.90;;;;;;;2.30;100.00;96154.94;10417042;28;20231;-78
2023/04/02 04:44:24;;;;;;;7.00;5.43;;;;;;;2.17;100.00;96154.22;10417368;28;20192;-78
2023/04/02 04:49:35;;;;;;;5.90;4.60;;;;;;;2.06;100.00;96167.97;10417345;28;20180;-78
2023/04/02 04:54:38;;;;;;;5.70;3.47;;;;;;;1.98;100.00;96178.91;10413476;28;20311;-77
2023/04/02 04:59:51;;;;;;;6.13;4.03;;;;;;;1.89;100.00;96195.09;10429389;28;20572;-77
2023/04/02 05:04:52;;;;;;;4.60;4.13;;;;;;;1.85;100.00;96198.84;10429041;28;20553;-78
2023/04/02 05:09:59;;;;;;;5.20;4.17;;;;;;;1.75;100.00;96204.69;10413167;28;20260;-77
2023/04/02 05:15:04;;;;;;;6.23;4.97;;;;;;;1.75;100.00;96206.47;10412368;28;20220;-78
2023/04/02 05:20:15;;;;;;;6.17;4.70;;;;;;;1.65;100.00;96223.56;10428310;28;20680;-78
2023/04/02 05:25:28;;;;;;;5.57;4.60;;;;;;;1.68;100.00;96229.31;10428727;28;20184;-77
2023/04/02 05:30:54;;;;;;;6.67;5.87;;;;;;;1.57;100.00;96244.78;10412497;28;20671;-78
2023/04/02 05:36:00;;;;;;;7.87;5.40;;;;;;;1.66;100.00;96257.00;10412509;28;20601;-78
2023/04/02 05:41:05;;;;;;;6.53;4.97;;;;;;;1.39;100.00;96271.00;10416681;28;20238;-78
2023/04/02 05:46:15;;;;;;;5.33;4.83;;;;;;;1.35;100.00;96268.75;10420131;28;20187;-77
2023/04/02 05:51:25;;;;;;;6.90;5.23;;;;;;;1.28;100.00;96288.19;10403593;28;20275;-77
2023/04/02 05:56:31;;;;;;;10.50;6.53;;;;;;;1.17;100.00;96299.25;10419587;28;20290;-77
2023/04/02 06:01:46;;;;;;;9.23;6.20;;;;;;;1.19;100.00;96307.72;10435519;28;20551;-77
2023/04/02 06:07:11;;;;;;;8.53;5.80;;;;;;;1.18;100.00;96324.13;10420576;28;20179;-77
2023/04/02 06:12:26;;;;;;;8.47;6.60;;;;;;;1.04;100.00;96333.66;10419522;28;20572;-77
2023/04/02 06:17:28;;;;;;;9.50;6.20;;;;;;;0.95;100.00;96349.78;10418114;28;20269;-77
2023/04/02 06:22:34;;;;;;;9.10;5.90;;;;;;;0.94;100.00;96355.84;10418458;28;20228;-76
2023/04/02 06:27:37;;;;;;;11.57;7.57;;;;;;;1.12;100.00;96351.19;10418336;28;20191;-78
2023/04/02 06:32:40;;;;;;;6.07;4.90;;;;;;;0.97;100.00;96358.22;10418131;28;20187;-78
2023/04/02 06:37:45;;;;;;;7.87;5.13;;;;;;;1.20;100.00;96381.59;10416898;28;20224;-78
2023/04/02 06:42:56;;;;;;;7.83;5.90;;;;;;;1.27;100.00;96380.22;10417944;28;20369;-77
2023/04/02 06:48:18;;;;;;;6.47;5.10;;;;;;;1.15;100.00;96393.97;10444849;28;20680;-77
2023/04/02 06:53:34;;;;;;;5.73;4.37;;;;;;;1.19;100.00;96403.97;10397340;28;20194;-77
2023/04/02 06:58:36;;;;;;;5.53;4.70;;;;;;;0.97;100.00;96404.66;10389212;28;20260;-78
2023/04/02 07:03:36;;;;;;;9.47;5.87;;;;;;;1.04;100.00;96408.47;10391884;28;20233;-78
2023/04/02 07:08:44;;;;;;;8.80;5.57;;;;;;;0.87;100.00;96408.78;10401573;28;20190;-80
2023/04/02 07:13:46;;;;;;;9.43;4.93;;;;;;;0.93;100.00;96413.50;10407438;28;20563;-80
2023/04/02 07:18:47;;;;;;;5.80;5.07;;;;;;;0.88;100.00;96428.47;10397167;28;20211;-78
2023/04/02 07:23:48;;;;;;;5.63;4.47;;;;;;;0.85;100.00;96441.59;10391024;28;20246;-79
2023/04/02 07:28:48;;;;;;;10.77;5.40;;;;;;;0.73;100.00;96452.72;10407912;28;20188;-79
2023/04/02 07:33:49;;;;;;;6.20;4.87;;;;;;;0.71;100.00;96461.38;10408423;28;20188;-79
2023/04/02 07:38:50;;;;;;;6.60;5.03;;;;;;;0.77;100.00;96479.97;10415314;28;20293;-81
2023/04/02 07:43:50;;;;;;;9.70;7.03;;;;;;;0.61;100.00;96488.66;10422813;28;20333;-81
2023/04/02 07:48:51;;;;;;;9.83;6.97;;;;;;;0.66;100.00;96496.94;10426174;28;20307;-81
2023/04/02 07:53:54;;;;;;;14.53;7.93;;;;;;;0.66;100.00;96507.25;10394333;28;20188;-80
2023/04/02 07:58:55;;;;;;;10.20;8.00;;;;;;;0.61;100.00;96513.63;10440059;28;20188;-81
2023/04/02 08:03:56;;;;;;;14.93;9.90;;;;;;;0.42;100.00;96521.75;10447713;28;20205;-78
2023/04/02 08:08:57;;;;;;;11.77;7.47;;;;;;;0.52;100.00;96522.78;10448688;28;20192;-77
2023/04/02 08:13:57;;;;;;;11.97;8.03;;;;;;;0.67;100.00;96534.69;10448388;28;20307;-76
2023/04/02 08:18:58;;;;;;;13.00;7.13;;;;;;;0.77;100.00;96547.00;10430840;28;20285;-77
2023/04/02 08:23:58;;;;;;;12.47;6.23;;;;;;;0.80;100.00;96551.94;10448419;28;20195;-76
2023/04/02 08:28:59;;;;;;;13.97;6.50;;;;;;;0.67;100.00;96557.91;10447581;28;20188;-76
2023/04/02 08:34:00;;;;;;;18.20;12.40;;;;;;;0.60;100.00;96566.94;10447216;28;20315;-77
2023/04/02 08:39:00;;;;;;;9.83;7.27;;;;;;;0.61;100.00;96567.75;10442641;28;20760;-76
2023/04/02 08:44:29;;;;;;;13.03;7.63;;;;;;;0.59;100.00;96583.31;10442688;28;20248;-78
2023/04/02 08:49:59;;;;;;;10.13;7.53;;;;;;;0.63;100.00;96587.38;10425031;28;20198;-77
2023/04/02 08:55:01;;;;;;;10.27;7.03;;;;;;;0.55;100.00;96593.94;10431788;28;20702;-76
2023/04/02 09:00:19;;;;;;;12.10;7.13;;;;;;;0.57;100.00;96597.22;10428664;28;20196;-79
2023/04/02 09:05:27;;;;;;;9.03;5.33;;;;;;;0.62;100.00;96598.59;10427428;28;20241;-77
2023/04/02 09:10:37;;;;;;;9.63;5.33;;;;;;;0.50;100.00;96612.28;10416602;28;20292;-77
2023/04/02 09:15:38;;;;;;;9.03;4.87;;;;;;;0.47;100.00;96613.28;10410430;28;20596;-76
2023/04/02 09:20:39;;;;;;;7.50;4.80;;;;;;;0.47;100.00;96617.63;10417811;28;20196;-76
2023/04/02 09:25:46;;;;;;;7.67;4.40;;;;;;;0.57;100.00;96618.69;10417115;28;20700;-76
2023/04/02 09:31:19;;;;;;;9.43;6.10;;;;;;;0.74;100.00;96622.78;10416064;28;20200;-76
2023/04/02 09:36:38;;;;;;;18.93;9.23;;;;;;;0.62;100.00;96611.50;10415747;28;20228;-76
2023/04/02 09:41:38;;;;;;;22.53;12.07;;;;;;;0.58;100.00;96628.06;10334319;28;20226;-76
2023/04/02 09:46:58;;;;;;;16.20;9.50;;;;;;;0.58;100.00;96630.63;10335313;28;20197;-76
2023/04/02 09:52:25;;;;;;;18.77;13.70;;;;;;;0.65;100.00;96633.69;10344006;28;20216;-76
2023/04/02 09:57:26;;;;;;;9.90;6.43;;;;;;;0.38;100.00;96641.38;10357691;28;20225;-76
2023/04/02 10:02:28;;;;;;;11.67;8.63;;;;;;;0.67;100.00;96649.88;10353796;28;20204;-76
2023/04/02 10:07:41;;;;;;;10.33;7.97;;;;;;;0.75;100.00;96665.69;10370068;28;20197;-76
2023/04/02 10:12:44;;;;;;;7.87;5.40;;;;;;;0.92;100.00;96663.78;10373763;28;20204;-76
2023/04/02 10:17:50;;;;;;;8.23;5.03;;;;;;;0.81;100.00;96672.19;10357523;28;20720;-76
2023/04/02 10:22:50;;;;;;;8.23;5.30;;;;;;;0.74;100.00;96663.22;10332004;28;20219;-76
2023/04/02 10:28:08;;;;;;;11.33;7.00;;;;;;;0.79;100.00;96680.03;10332940;28;20193;-76
2023/04/02 10:33:16;;;;;;;9.00;6.57;;;;;;;0.61;100.00;96691.50;10332333;28;20216;-76
2023/04/02 10:38:41;;;;;;;32.03;17.73;;;;;;;0.75;100.00;96703.53;10362712;28;20329;-76
2023/04/02 10:44:03;;;;;;;8.63;6.33;;;;;;;0.63;100.00;96702.53;10397012;28;20306;-76
2023/04/02 10:49:23;;;;;;;12.20;7.97;;;;;;;0.75;100.00;96719.00;10396757;28;20192;-76
2023/04/02 10:54:42;;;;;;;9.57;6.33;;;;;;;0.61;100.00;96730.97;10413195;28;20237;-76
2023/04/02 10:59:47;;;;;;;9.17;6.03;;;;;;;0.75;100.00;96745.63;10443923;28;20195;-75
2023/04/02 11:04:49;;;;;;;10.27;5.97;;;;;;;0.96;100.00;96743.44;10454129;28;20587;-75
2023/04/02 11:09:51;;;;;;;13.63;6.07;;;;;;;1.01;100.00;96758.63;10452281;28;20560;-76
2023/04/02 11:14:52;;;;;;;10.23;5.63;;;;;;;0.92;100.00;96766.94;10428865;28;20209;-75
2023/04/02 11:19:53;;;;;;;8.93;5.10;;;;;;;0.74;100.00;96772.31;10411310;28;20194;-75
2023/04/02 11:24:54;;;;;;;12.03;5.33;;;;;;;0.97;100.00;96768.31;10428492;28;20526;-75
2023/04/02 11:30:23;;;;;;;10.40;5.00;;;;;;;1.02;100.00;96778.34;10408611;28;20216;-75
2023/04/02 11:35:29;;;;;;;8.20;5.27;;;;;;;0.83;100.00;96784.66;10410933;28;20742;-75
2023/04/02 11:40:46;;;;;;;76.83;37.43;;;;;;;1.04;100.00;96790.25;10393261;28;20662;-75
2023/04/02 11:45:53;;;;;;;10.33;6.50;;;;;;;1.13;100.00;96796.56;10394095;28;20700;-75
2023/04/02 11:50:53;;;;;;;9.57;5.23;;;;;;;1.04;100.00;96791.97;10393543;28;20199;-75
2023/04/02 11:56:00;;;;;;;6.90;5.73;;;;;;;1.24;100.00;96804.47;10410717;28;20700;-75
2023/04/02 12:01:20;;;;;;;7.07;5.93;;;;;;;1.38;100.00;96803.59;10411045;28;20188;-76
2023/04/02 12:06:45;;;;;;;18.37;9.20;;;;;;;1.63;100.00;96809.78;10410062;28;20292;-75
2023/04/02 12:11:46;;;;;;;6.23;4.70;;;;;;;1.55;100.00;96815.44;10393136;28;20561;-75
2023/04/02 12:16:47;;;;;;;8.77;7.70;;;;;;;1.63;100.00;96814.94;10392035;28;20256;-75
2023/04/02 12:21:47;;;;;;;7.90;5.10;;;;;;;1.50;100.00;96822.66;10376105;28;20729;-75
2023/04/02 12:26:48;;;;;;;6.97;4.47;;;;;;;1.45;100.00;96829.84;10426631;28;20226;-75
2023/04/02 12:31:48;;;;;;;6.90;4.20;;;;;;;1.27;100.00;96833.56;10429078;28;20765;-76
2023/04/02 12:37:02;;;;;;;8.00;5.47;;;;;;;1.41;100.00;96839.53;10404331;28;20239;-76
2023/04/02 12:42:03;;;;;;;9.80;5.27;;;;;;;1.45;100.00;96844.50;10427715;28;20211;-76
2023/04/02 12:47:03;;;;;;;8.40;5.17;;;;;;;1.66;100.00;96844.91;10399792;28;20199;-76
2023/04/02 12:52:09;;;;;;;6.33;5.07;;;;;;;1.82;100.00;96847.31;10449989;28;20205;-76
2023/04/02 12:57:26;;;;;;;8.80;4.80;;;;;;;1.91;100.00;96854.47;10445871;28;20223;-76
2023/04/02 13:02:29;;;;;;;8.47;5.40;;;;;;;2.24;100.00;96850.63;10446829;28;20711;-76
2023/04/02 13:07:31;;;;;;;9.10;5.27;;;;;;;1.94;100.00;96854.28;10433215;28;20195;-75
2023/04/02 13:12:37;;;;;;;8.00;5.40;;;;;;;1.99;100.00;96869.47;10450840;28;20184;-75
2023/04/02 13:17:43;;;;;;;12.23;4.77;;;;;;;2.19;100.00;96870.75;10449156;28;20723;-75
2023/04/02 13:22:43;;;;;;;7.80;3.77;;;;;;;2.12;100.00;96868.59;10449534;28;20196;-74
2023/04/02 13:27:44;;;;;;;7.67;3.90;;;;;;;2.14;100.00;96858.16;10450225;28;20218;-75
2023/04/02 13:32:44;;;;;;;6.70;3.97;;;;;;;2.35;100.00;96868.84;10426212;28;20199;-75
2023/04/02 13:37:44;;;;;;;9.80;3.97;;;;;;;2.11;100.00;96879.03;10456720;28;20234;-76
2023/04/02 13:42:46;;;;;;;9.80;3.80;;;;;;;2.16;100.00;96883.88;10454479;28;20225;-76
2023/04/02 13:47:46;;;;;;;5.10;4.40;;;;;;;2.19;100.00;96889.72;10449038;28;20224;-76
2023/04/02 13:52:48;;;;;;;7.13;4.67;;;;;;;2.02;100.00;96883.06;10463129;28;20210;-75
2023/04/02 13:57:49;;;;;;;7.00;3.97;;;;;;;2.25;100.00;96891.03;10471438;28;20216;-75
2023/04/02 14:02:54;;;;;;;9.37;3.83;;;;;;;2.39;100.00;96895.31;10455388;28;20258;-76
2023/04/02 14:08:22;;;;;;;5.57;4.23;;;;;;;2.46;100.00;96897.38;10457315;28;20180;-75
2023/04/02 14:13:47;;;;;;;4.53;3.03;;;;;;;2.33;100.00;96906.91;10455551;28;20195;-75
2023/04/02 14:19:16;;;;;;;8.67;3.90;;;;;;;2.22;100.00;96920.53;10456732;28;20219;-75
2023/04/02 14:24:37;;;;;;;7.83;3.40;;;;;;;1.87;100.00;96907.25;10455096;28;20196;-75
2023/04/02 14:30:32;;;;;;;5.57;3.37;;;;;;;1.91;100.00;96919.88;10450154;28;20191;-75
2023/04/02 14:35:35;;;;;;;5.07;3.10;;;;;;;2.14;100.00;96927.91;10426164;28;20242;-75
2023/04/02 14:40:42;;;;;;;6.07;3.10;;;;;;;2.39;100.00;96941.84;10448371;28;20227;-75
2023/04/02 14:45:56;;;;;;;6.33;3.10;;;;;;;2.23;100.00;96942.84;10448639;28;20273;-75
2023/04/02 14:51:04;;;;;;;8.90;3.80;;;;;;;2.29;100.00;96936.44;10480802;28;20201;-74
2023/04/02 14:56:06;;;;;;;5.90;2.80;;;;;;;1.90;100.00;96941.50;10474755;28;20254;-75
2023/04/02 15:01:18;;;;;;;4.03;2.50;;;;;;;1.95;100.00;96948.94;10455325;28;20362;-75
2023/04/02 15:06:41;;;;;;;5.23;2.90;;;;;;;2.01;100.00;96947.75;10427779;28;20184;-73
2023/04/02 15:11:44;;;;;;;4.07;3.07;;;;;;;1.86;100.00;96941.78;10417747;28;20257;-75
2023/04/02 15:16:45;;;;;;;5.87;3.60;;;;;;;1.68;100.00;96960.06;10438603;28;20688;-75
2023/04/02 15:22:11;;;;;;;7.90;4.20;;;;;;;1.69;100.00;96969.47;10419679;28;20192;-75
2023/04/02 15:27:51;;;;;;;9.90;3.37;;;;;;;1.75;100.00;96978.63;10412660;28;20343;-75
2023/04/02 15:32:54;;;;;;;4.77;3.13;;;;;;;1.56;100.00;96982.34;10398329;28;20204;-75
2023/04/02 15:38:15;;;;;;;5.10;3.20;;;;;;;1.71;100.00;96977.97;10411784;28;20255;-73
2023/04/02 15:43:30;;;;;;;6.00;3.50;;;;;;;1.79;100.00;96980.06;10394142;28;20577;-75
2023/04/02 15:48:42;;;;;;;6.80;3.53;;;;;;;1.72;100.00;96987.38;10411621;28;20180;-74
2023/04/02 15:53:59;;;;;;;4.97;3.90;;;;;;;1.66;100.00;96998.09;10412067;28;20255;-74
2023/04/02 15:59:37;;;;;;;5.20;3.40;;;;;;;1.75;100.00;96988.94;10410426;28;20197;-74
2023/04/02 16:05:08;;;;;;;4.43;3.60;;;;;;;1.73;100.00;97008.84;10413669;28;20620;-75
2023/04/02 16:10:19;;;;;;;14.07;8.57;;;;;;;1.68;100.00;97005.72;10447070;28;20273;-74
2023/04/02 16:15:23;;;;;;;10.83;5.87;;;;;;;1.54;100.00;97015.16;10426907;28;20216;-75
2023/04/02 16:20:27;;;;;;;4.77;3.90;;;;;;;1.53;100.00;97025.56;10427365;28;20196;-74
2023/04/02 16:25:30;;;;;;;5.00;3.63;;;;;;;1.56;100.00;97030.53;10407734;28;20188;-74
2023/04/02 16:30:44;;;;;;;14.63;6.23;;;;;;;1.74;100.00;97042.34;10408189;28;20657;-74
2023/04/02 16:36:15;;;;;;;12.53;7.07;;;;;;;1.67;100.00;97046.22;10410322;28;20225;-75
2023/04/02 16:41:35;;;;;;;13.67;4.43;;;;;;;1.58;100.00;97055.34;10390320;28;20236;-74
2023/04/02 16:46:50;;;;;;;6.13;3.03;;;;;;;1.59;100.00;97056.19;10408535;28;20196;-74
2023/04/02 16:52:48;;;;;;;4.80;3.40;;;;;;;1.36;100.00;97071.31;10390374;28;20763;-75
2023/04/02 16:57:57;;;;;;;10.03;4.93;;;;;;;1.42;100.00;97081.28;10310500;28;20597;-74
2023/04/02 17:03:07;;;;;;;8.93;4.60;;;;;;;1.55;100.00;97088.28;10408738;28;20192;-74
2023/04/02 17:08:26;;;;;;;8.63;4.50;;;;;;;1.54;100.00;97084.03;10389684;28;20185;-74
2023/04/02 17:13:40;;;;;;;9.33;5.43;;;;;;;1.53;100.00;97097.84;10413664;28;20374;-74
2023/04/02 17:18:42;;;;;;;8.87;4.53;;;;;;;1.51;100.00;97110.84;10433951;28;20260;-74
2023/04/02 17:24:10;;;;;;;5.43;3.73;;;;;;;1.49;100.00;97109.31;10418230;28;20279;-74
2023/04/02 17:29:15;;;;;;;4.67;3.87;;;;;;;1.34;100.00;97118.78;10405219;28;20203;-74
2023/04/02 17:34:17;;;;;;;13.83;4.53;;;;;;;1.43;100.00;97111.31;10400056;28;20671;-74
2023/04/02 17:39:41;;;;;;;5.27;2.97;;;;;;;1.43;100.00;97116.47;10441156;28;20232;-74
2023/04/02 17:45:05;;;;;;;5.20;2.77;;;;;;;1.46;100.00;97125.78;10409810;28;20556;-74
2023/04/02 17:50:08;;;;;;;4.10;3.27;;;;;;;1.37;100.00;97134.91;10409590;28;20226;-74
2023/04/02 17:55:30;;;;;;;4.27;3.20;;;;;;;1.27;100.00;97140.69;10449927;28;20219;-74
2023/04/02 18:00:52;;;;;;;5.13;3.03;;;;;;;1.25;100.00;97145.94;10451050;28;20283;-74
2023/04/02 18:06:19;;;;;;;8.13;3.57;;;;;;;1.25;100.00;97154.50;10446799;28;20231;-74
2023/04/02 18:11:34;;;;;;;5.03;3.20;;;;;;;1.21;100.00;97153.03;10449602;28;20545;-74
2023/04/02 18:16:47;;;;;;;4.83;3.17;;;;;;;1.19;100.00;97161.75;10447507;28;20730;-74
2023/04/02 18:22:01;;;;;;;6.83;4.13;;;;;;;1.25;100.00;97171.75;10446728;28;20291;-74
2023/04/02 18:27:11;;;;;;;8.13;3.90;;;;;;;1.19;100.00;97159.19;10444979;28;20637;-74
2023/04/02 18:32:23;;;;;;;5.57;4.20;;;;;;;1.11;100.00;97177.69;10434798;28;20523;-74
2023/04/02 18:37:30;;;;;;;9.20;4.03;;;;;;;1.07;100.00;97194.25;10429318;28;20263;-74
2023/04/02 18:42:45;;;;;;;10.67;5.50;;;;;;;1.04;100.00;97197.84;10410992;28;20223;-74
2023/04/02 18:48:04;;;;;;;8.10;4.53;;;;;;;1.05;100.00;97204.66;10425308;28;20196;-74
2023/04/02 18:53:14;;;;;;;5.67;3.67;;;;;;;1.09;100.00;97222.53;10419557;28;20279;-74
2023/04/02 18:58:21;;;;;;;4.97;3.10;;;;;;;1.05;100.00;97222.69;10394602;28;20590;-74
2023/04/02 19:03:31;;;;;;;5.43;3.47;;;;;;;1.01;100.00;97231.56;10392185;28;20376;-73
2023/04/02 19:08:47;;;;;;;8.87;3.97;;;;;;;0.98;100.00;97230.88;10393011;28;20271;-73
2023/04/02 19:13:49;;;;;;;9.23;3.73;;;;;;;1.06;100.00;97245.03;10406350;28;20744;-73
2023/04/02 19:19:11;;;;;;;10.53;3.97;;;;;;;1.02;100.00;97253.84;10403837;28;20276;-73
2023/04/02 19:24:42;;;;;;;5.90;3.07;;;;;;;0.95;100.00;97239.63;10404397;28;20196;-74
2023/04/02 19:29:59;;;;;;;8.63;4.03;;;;;;;0.99;100.00;97254.00;10386671;28;20266;-74
2023/04/02 19:35:03;;;;;;;4.50;3.17;;;;;;;1.01;100.00;97261.66;10369091;28;20242;-74
2023/04/02 19:40:20;;;;;;;6.57;3.20;;;;;;;1.01;100.00;97261.66;10402451;28;20768;-74
2023/04/02 19:45:33;;;;;;;5.40;3.10;;;;;;;0.90;100.00;97269.97;10402997;28;20192;-74
2023/04/02 19:50:34;;;;;;;8.17;4.20;;;;;;;0.92;100.00;97269.91;10402358;28;20714;-74
2023/04/02 19:55:34;;;;;;;10.93;3.67;;;;;;;0.91;100.00;97270.84;10385306;28;20696;-74
2023/04/02 20:00:35;;;;;;;7.40;4.63;;;;;;;0.89;100.00;97271.75;10400596;28;20232;-74
2023/04/02 20:05:35;;;;;;;7.70;3.47;;;;;;;0.91;100.00;97270.84;10410880;28;20191;-75
2023/04/02 20:10:35;;;;;;;6.00;3.77;;;;;;;0.88;100.00;97269.25;10425615;28;20204;-75
2023/04/02 20:15:38;;;;;;;10.40;3.40;;;;;;;0.88;100.00;97272.63;10426407;28;20315;-74
2023/04/02 20:20:38;;;;;;;7.70;3.20;;;;;;;0.94;100.00;97279.22;10425810;28;20188;-74
2023/04/02 20:25:46;;;;;;;7.00;3.10;;;;;;;0.95;100.00;97283.47;10427113;28;20595;-74
2023/04/02 20:30:48;;;;;;;8.20;3.10;;;;;;;0.92;100.00;97286.22;10408496;28;20196;-74
2023/04/02 20:35:50;;;;;;;6.57;3.13;;;;;;;0.94;100.00;97291.31;10441439;28;20636;-74
2023/04/02 20:40:53;;;;;;;9.77;3.50;;;;;;;0.96;100.00;97300.59;10449707;28;20227;-74
2023/04/02 20:45:55;;;;;;;6.27;3.37;;;;;;;0.92;100.00;97300.84;10449825;28;20238;-74
2023/04/02 20:50:55;;;;;;;10.13;3.60;;;;;;;0.93;100.00;97305.94;10449662;28;20196;-74
2023/04/02 20:56:09;;;;;;;7.27;3.03;;;;;;;0.98;100.00;97316.00;10449780;28;20228;-74
2023/04/02 21:01:17;;;;;;;8.40;3.07;;;;;;;0.96;100.00;97310.91;10449621;28;20307;-74
2023/04/02 21:06:21;;;;;;;4.67;2.60;;;;;;;0.97;100.00;97311.78;10448939;28;20659;-74
2023/04/02 21:11:22;;;;;;;6.70;2.73;;;;;;;1.09;100.00;97310.25;10459443;28;20195;-74
2023/04/02 21:16:27;;;;;;;6.00;2.90;;;;;;;1.12;100.00;97315.25;10462670;28;20557;-73
2023/04/02 21:21:28;;;;;;;5.27;2.60;;;;;;;1.13;100.00;97315.16;10445752;28;20203;-74
2023/04/02 21:26:31;;;;;;;5.57;2.67;;;;;;;1.09;100.00;97321.44;10464570;28;20252;-74
2023/04/02 21:31:36;;;;;;;5.83;2.40;;;;;;;1.13;100.00;97333.22;10464011;28;20194;-74
2023/04/02 21:36:41;;;;;;;7.93;2.70;;;;;;;1.12;100.00;97326.44;10464442;28;20219;-74
2023/04/02 21:41:42;;;;;;;3.43;2.20;;;;;;;1.10;100.00;97333.41;10463740;28;20216;-74
2023/04/02 21:46:44;;;;;;;4.70;2.23;;;;;;;1.11;100.00;97334.25;10464159;28;20262;-74
2023/04/02 21:51:45;;;;;;;12.07;2.73;;;;;;;1.09;100.00;97330.91;10446027;28;20611;-74
2023/04/02 21:56:46;;;;;;;5.67;2.07;;;;;;;1.10;100.00;97330.00;10463601;28;20254;-74
2023/04/02 22:01:49;;;;;;;8.13;2.37;;;;;;;1.01;100.00;97331.31;10463694;28;20279;-73
2023/04/02 22:06:50;;;;;;;4.87;2.17;;;;;;;1.09;100.00;97331.75;10463547;28;20275;-74
2023/04/02 22:11:53;;;;;;;3.40;2.10;;;;;;;0.99;100.00;97339.13;10445867;28;20226;-74
2023/04/02 22:16:53;;;;;;;6.80;2.20;;;;;;;0.93;100.00;97336.06;10463533;28;20223;-74
2023/04/02 22:21:55;;;;;;;5.63;2.17;;;;;;;0.98;100.00;97344.38;10459066;28;20195;-75
2023/04/02 22:26:55;;;;;;;5.13;2.30;;;;;;;0.87;100.00;97337.19;10456912;28;20195;-73
2023/04/02 22:31:55;;;;;;;4.30;2.03;;;;;;;0.84;100.00;97345.97;10456377;28;20192;-74
2023/04/02 22:36:56;;;;;;;4.60;1.63;;;;;;;0.87;100.00;97347.53;10438350;28;20242;-74
2023/04/02 22:41:56;;;;;;;5.73;2.10;;;;;;;0.88;100.00;97344.88;10438241;28;20314;-74
2023/04/02 22:46:56;;;;;;;4.37;1.90;;;;;;;0.92;100.00;97361.03;10438180;28;20192;-74
2023/04/02 22:51:57;;;;;;;7.07;1.87;;;;;;;0.92;100.00;97355.03;10456051;28;20203;-74
2023/04/02 22:56:57;;;;;;;4.53;1.50;;;;;;;0.89;100.00;97356.03;10455215;28;20332;-74
2023/04/02 23:01:57;;;;;;;4.10;1.73;;;;;;;0.94;100.00;97366.09;10455423;28;20203;-74
2023/04/02 23:06:58;;;;;;;7.87;2.07;;;;;;;0.78;100.00;97366.06;10455153;28;20188;-74
2023/04/02 23:11:58;;;;;;;3.53;1.80;;;;;;;0.68;100.00;97368.28;10454790;28;20226;-74
2023/04/02 23:16:58;;;;;;;2.03;1.70;;;;;;;0.68;100.00;97376.03;10454874;28;20230;-74
2023/04/02 23:21:59;;;;;;;4.93;1.63;;;;;;;0.65;100.00;97379.59;10454606;28;20188;-74
2023/04/02 23:26:59;;;;;;;5.63;1.83;;;;;;;0.62;100.00;97382.31;10454549;28;20219;-74
2023/04/02 23:32:00;;;;;;;6.60;2.30;;;;;;;0.49;100.00;97376.09;10454043;28;20241;-74
2023/04/02 23:37:00;;;;;;;4.67;2.00;;;;;;;0.39;100.00;97354.31;10454109;28;20730;-74
2023/04/02 23:42:00;;;;;;;6.07;2.13;;;;;;;0.38;100.00;97361.19;10453513;28;20361;-74
2023/04/02 23:47:01;;;;;;;7.47;1.93;;;;;;;0.41;100.00;97368.75;10435995;28;20883;-74
2023/04/02 23:52:01;;;;;;;6.97;2.20;;;;;;;0.37;100.00;97371.56;10453173;28;20187;-74